ESOW/VST METAR and TAF weather

Enter ICAO airport designator
Station Type Date Time Source
ESOW METAR 2019/04/26 04:20 UTC NOAA

ESOW 260420Z AUTO 01005KT 9999 NCD 08/04 Q1017


Station Type Date Time Source
ESOW Decoded METAR 2019/04/26 04:20 UTC NOAA

Vasteras / Hasslo, Sweden (ESOW) 59-35N 016-38E 31M
Apr 26, 2019 - 12:20 AM EDT / 2019.04.26 0420 UTC
Wind: from the N (010 degrees) at 6 MPH (5 KT):0
Visibility: greater than 7 mile(s):0
Temperature: 46 F (8 C)
Dew Point: 39 F (4 C)
Relative Humidity: 75%
Pressure (altimeter): 30.03 in. Hg (1017 hPa)
ob: ESOW 260420Z AUTO 01005KT 9999 NCD 08/04 Q1017
cycle: 4

Station Type Date Time Source
ESOW TAF 2018/11/18 12:33 UTC NOAA

TAF ESOW 181130Z 1812/1914 02015KT 9999 BKN020
TEMPO 1812/1814 02015G25KT

Example: see airport list